Time;durP1;ratioP1;P1;durP2;ratioP2;P2;SDS_P1;SDS_P2;PMS_P1;PMS_P2;Temp;Humidity;BMP_temperature;BMP_pressure;BME280_temperature;BME280_humidity;BME280_pressure;Samples;Min_cycle;Max_cycle;Signal;HPM_P1;HPM_P2
2022/03/20 00:01:14;;;;;;;40.45;23.60;;;3.10;64.20;;;;;;4954110;28;20034;-70
2022/03/20 00:03:39;;;;;;;67.40;40.22;;;3.10;64.40;;;;;;4953022;28;20486;-70
2022/03/20 00:06:05;;;;;;;41.90;20.60;;;3.00;64.70;;;;;;4951321;28;20501;-70
2022/03/20 00:08:31;;;;;;;47.42;26.83;;;3.00;64.70;;;;;;4952918;28;20486;-72
2022/03/20 00:11:01;;;;;;;65.82;35.08;;;3.00;64.50;;;;;;4964503;28;20022;-70
2022/03/20 00:13:28;;;;;;;64.20;33.97;;;2.90;64.40;;;;;;4956571;28;20375;-69
2022/03/20 00:15:55;;;;;;;62.53;35.20;;;3.00;64.50;;;;;;4971216;28;20062;-69
2022/03/20 00:18:26;;;;;;;84.43;44.80;;;2.90;64.50;;;;;;4974804;28;20037;-70
2022/03/20 00:20:57;;;;;;;58.65;30.98;;;2.90;64.60;;;;;;4974488;28;20070;-70
2022/03/20 00:23:24;;;;;;;82.45;33.72;;;2.90;64.50;;;;;;4974783;28;20117;-72
2022/03/20 00:25:51;;;;;;;49.40;24.15;;;2.80;64.70;;;;;;4974409;28;20037;-71
2022/03/20 00:28:19;;;;;;;61.00;30.77;;;2.80;64.60;;;;;;4975269;28;20093;-72
2022/03/20 00:30:47;;;;;;;81.53;41.75;;;2.80;64.50;;;;;;4974221;28;20034;-71
2022/03/20 00:33:13;;;;;;;71.05;36.13;;;2.70;65.00;;;;;;4974418;28;20389;-72
2022/03/20 00:35:39;;;;;;;55.30;30.20;;;2.60;65.20;;;;;;4974446;28;20023;-72
2022/03/20 00:38:07;;;;;;;67.65;32.67;;;2.60;65.20;;;;;;4972794;28;20489;-73
2022/03/20 00:40:34;;;;;;;60.30;32.53;;;2.60;65.70;;;;;;4974022;28;20014;-70
2022/03/20 00:43:00;;;;;;;55.03;29.52;;;2.50;65.80;;;;;;4974359;28;20033;-70
2022/03/20 00:45:28;;;;;;;66.43;34.63;;;2.50;65.80;;;;;;4974411;28;20077;-72
2022/03/20 00:47:54;;;;;;;55.13;30.65;;;2.50;65.70;;;;;;4974440;28;20022;-72
2022/03/20 00:50:21;;;;;;;71.97;35.95;;;2.50;66.20;;;;;;4974131;28;20041;-71
2022/03/20 00:52:47;;;;;;;48.50;25.58;;;2.50;65.70;;;;;;4974241;28;20042;-70
2022/03/20 00:55:13;;;;;;;52.83;30.98;;;2.50;65.80;;;;;;4974123;28;20030;-71
2022/03/20 00:57:39;;;;;;;42.72;24.60;;;2.40;66.30;;;;;;4974194;28;20027;-72
2022/03/20 01:00:06;;;;;;;38.30;18.88;;;2.40;66.20;;;;;;4973824;28;20033;-71
2022/03/20 01:02:43;;;;;;;29.75;15.98;;;2.40;66.20;;;;;;4973757;28;20035;-72
2022/03/20 01:05:09;;;;;;;38.72;19.13;;;2.40;66.30;;;;;;4973713;28;20034;-72
2022/03/20 01:07:37;;;;;;;29.52;15.85;;;2.30;66.30;;;;;;4972399;28;20049;-70
2022/03/20 01:10:07;;;;;;;27.17;15.57;;;2.40;66.20;;;;;;4954283;28;20098;-69
2022/03/20 01:12:38;;;;;;;29.63;13.60;;;2.40;66.20;;;;;;4954681;29;20023;-69
2022/03/20 01:15:10;;;;;;;27.75;13.68;;;2.40;66.20;;;;;;4954363;29;20031;-69
2022/03/20 01:17:36;;;;;;;25.73;13.05;;;2.30;66.60;;;;;;4954106;28;20098;-68
2022/03/20 01:20:04;;;;;;;25.77;13.48;;;2.30;66.50;;;;;;4954545;29;20028;-69
2022/03/20 01:22:29;;;;;;;26.80;12.77;;;2.20;66.50;;;;;;4953945;29;20059;-72
2022/03/20 01:24:55;;;;;;;29.80;16.25;;;2.30;66.60;;;;;;4954246;29;20441;-70
2022/03/20 01:27:21;;;;;;;22.80;10.77;;;2.30;66.70;;;;;;4954230;29;20031;-69
2022/03/20 01:29:47;;;;;;;26.75;13.52;;;2.20;67.10;;;;;;4954272;28;20023;-67
2022/03/20 01:32:13;;;;;;;18.02;10.23;;;2.20;67.60;;;;;;4954070;29;20035;-70
2022/03/20 01:34:39;;;;;;;18.15;9.73;;;2.10;68.20;;;;;;4954337;28;20470;-70
2022/03/20 01:37:06;;;;;;;18.95;9.30;;;2.10;68.50;;;;;;4947482;29;20026;-69
2022/03/20 01:39:31;;;;;;;18.45;8.93;;;2.10;68.70;;;;;;4951528;29;20023;-71
2022/03/20 01:41:57;;;;;;;15.88;8.15;;;2.10;68.60;;;;;;4953978;29;20401;-69
2022/03/20 01:44:30;;;;;;;19.67;9.27;;;2.00;68.50;;;;;;4953892;29;20024;-72
2022/03/20 01:46:57;;;;;;;15.30;8.20;;;2.00;68.40;;;;;;4954011;29;20047;-71
2022/03/20 01:49:22;;;;;;;20.65;8.90;;;2.00;68.20;;;;;;4954055;29;20027;-72
2022/03/20 01:54:35;;;;;;;19.17;8.95;;;2.00;68.30;;;;;;4953761;29;20470;-72
2022/03/20 01:57:00;;;;;;;19.88;9.93;;;2.00;68.70;;;;;;4953709;29;20514;-72
2022/03/20 01:59:26;;;;;;;18.00;8.00;;;2.00;68.50;;;;;;4953540;29;20078;-68
2022/03/20 02:01:52;;;;;;;16.77;8.52;;;2.00;68.70;;;;;;4953844;29;20078;-67
2022/03/20 02:04:18;;;;;;;24.05;7.85;;;2.00;68.20;;;;;;4954098;29;20039;-66
2022/03/20 02:06:44;;;;;;;15.10;7.13;;;2.00;68.00;;;;;;4953563;29;20042;-72
2022/03/20 02:09:11;;;;;;;14.45;6.97;;;2.00;67.80;;;;;;4953486;29;20042;-70
2022/03/20 02:11:37;;;;;;;17.45;7.57;;;2.00;67.50;;;;;;4953632;29;20035;-72
2022/03/20 02:14:04;;;;;;;12.05;6.82;;;2.10;67.10;;;;;;4953741;29;20454;-70
2022/03/20 02:16:31;;;;;;;13.60;7.13;;;2.10;67.00;;;;;;4953510;29;20028;-68
2022/03/20 02:18:58;;;;;;;15.90;7.53;;;2.10;67.00;;;;;;4952594;29;20041;-70
2022/03/20 02:21:43;;;;;;;16.83;7.20;;;2.10;66.80;;;;;;4953530;29;20106;-72
2022/03/20 02:24:44;;;;;;;15.13;7.25;;;2.10;67.10;;;;;;4953382;29;20023;-72
2022/03/20 02:27:24;;;;;;;13.88;7.57;;;2.10;66.90;;;;;;4953212;29;20039;-70
2022/03/20 02:29:53;;;;;;;15.20;7.47;;;2.10;66.80;;;;;;4954440;28;20058;-72
2022/03/20 02:32:27;;;;;;;15.70;9.15;;;2.10;66.70;;;;;;4957586;29;20031;-70
2022/03/20 02:34:55;;;;;;;20.35;10.77;;;2.10;67.00;;;;;;4957322;29;20051;-70
2022/03/20 02:37:22;;;;;;;23.13;12.30;;;2.10;67.00;;;;;;4957495;29;20031;-72
2022/03/20 02:39:50;;;;;;;20.70;10.30;;;2.10;66.80;;;;;;4957405;29;20118;-71
2022/03/20 02:42:17;;;;;;;15.10;7.90;;;2.10;67.10;;;;;;4957480;29;20110;-72
2022/03/20 02:45:04;;;;;;;19.77;9.65;;;2.00;66.90;;;;;;4957633;29;20114;-68
2022/03/20 02:47:32;;;;;;;17.88;9.45;;;2.00;67.00;;;;;;4957236;29;20466;-71
2022/03/20 02:50:05;;;;;;;21.30;9.57;;;2.00;67.00;;;;;;4957029;29;20035;-68
2022/03/20 02:52:42;;;;;;;18.42;8.95;;;2.00;66.90;;;;;;4957162;29;20137;-70
2022/03/20 02:55:10;;;;;;;15.52;6.78;;;2.00;67.30;;;;;;4956931;29;20031;-72
2022/03/20 02:57:35;;;;;;;12.85;7.25;;;2.00;67.30;;;;;;4957007;29;20028;-72
2022/03/20 03:00:05;;;;;;;12.77;6.60;;;2.00;67.20;;;;;;4956802;29;20034;-70
2022/03/20 03:02:36;;;;;;;15.07;7.00;;;2.00;66.70;;;;;;4957325;29;20031;-71
2022/03/20 03:05:03;;;;;;;12.27;7.15;;;1.90;66.50;;;;;;4957304;29;20110;-71
2022/03/20 03:13:09;;;;;;;13.65;7.63;;;1.90;67.00;;;;;;4956808;29;20027;-69
2022/03/20 03:15:36;;;;;;;17.25;7.03;;;1.90;66.60;;;;;;4956723;29;20466;-70
2022/03/20 03:18:02;;;;;;;11.68;6.75;;;1.90;66.70;;;;;;4956876;29;20030;-71
2022/03/20 03:20:28;;;;;;;13.50;7.30;;;2.00;66.30;;;;;;4956507;29;20043;-65
2022/03/20 03:22:54;;;;;;;11.68;7.03;;;1.90;66.50;;;;;;4956648;29;20110;-71
2022/03/20 03:25:22;;;;;;;13.85;7.28;;;1.90;66.60;;;;;;4956309;29;20039;-71
2022/03/20 03:27:47;;;;;;;13.90;7.28;;;1.90;66.60;;;;;;4956435;29;20086;-71
2022/03/20 03:30:14;;;;;;;13.82;6.85;;;1.90;66.80;;;;;;4956198;28;20031;-68
2022/03/20 03:32:42;;;;;;;11.38;6.25;;;1.90;67.10;;;;;;4956589;29;20426;-70
2022/03/20 03:37:54;;;;;;;12.82;6.28;;;1.80;67.10;;;;;;4956410;29;20032;-72
2022/03/20 03:40:19;;;;;;;12.70;6.53;;;1.80;66.80;;;;;;4955970;28;20086;-70
2022/03/20 03:42:46;;;;;;;13.73;7.45;;;1.80;66.30;;;;;;4955920;29;20636;-72
2022/03/20 03:45:12;;;;;;;13.45;6.03;;;1.80;66.20;;;;;;4955687;29;20027;-70
2022/03/20 03:47:40;;;;;;;13.10;6.32;;;1.80;65.80;;;;;;4955984;29;20027;-70
2022/03/20 03:50:10;;;;;;;12.88;6.63;;;1.80;66.20;;;;;;4956026;29;20517;-68
2022/03/20 03:52:37;;;;;;;12.40;6.03;;;1.70;66.00;;;;;;4956343;29;20066;-70
2022/03/20 03:55:04;;;;;;;12.70;6.63;;;1.70;66.10;;;;;;4955868;29;20035;-72
2022/03/20 03:57:30;;;;;;;15.43;6.93;;;1.70;66.70;;;;;;4955960;29;20082;-72
2022/03/20 03:59:56;;;;;;;12.10;6.55;;;1.70;66.10;;;;;;4955681;29;20027;-68
2022/03/20 04:02:22;;;;;;;10.75;5.85;;;1.60;65.90;;;;;;4955733;29;20466;-71
2022/03/20 04:04:48;;;;;;;10.43;5.25;;;1.60;65.90;;;;;;4955982;29;20063;-71
2022/03/20 04:07:18;;;;;;;15.63;6.40;;;1.60;65.90;;;;;;4958684;28;20043;-72
2022/03/20 04:09:48;;;;;;;13.32;6.68;;;1.60;65.90;;;;;;4978735;28;20026;-72
2022/03/20 04:12:14;;;;;;;11.20;5.68;;;1.50;66.70;;;;;;4976430;28;20377;-70
2022/03/20 04:14:43;;;;;;;10.20;5.25;;;1.40;67.00;;;;;;4975156;28;20031;-70
2022/03/20 04:17:10;;;;;;;11.20;5.82;;;1.30;67.20;;;;;;4974779;28;20033;-69
2022/03/20 04:19:36;;;;;;;13.15;6.50;;;1.30;67.00;;;;;;4974742;28;20033;-66
2022/03/20 04:22:03;;;;;;;13.63;5.40;;;1.20;66.70;;;;;;4974448;28;20050;-68
2022/03/20 04:24:30;;;;;;;13.65;7.07;;;1.20;66.60;;;;;;4974569;28;20058;-70
2022/03/20 04:26:58;;;;;;;20.90;10.63;;;1.20;66.20;;;;;;4974452;28;20448;-71
2022/03/20 04:29:27;;;;;;;36.05;18.30;;;1.10;66.20;;;;;;4973543;28;20047;-68
2022/03/20 04:31:54;;;;;;;18.88;8.32;;;1.00;66.20;;;;;;4973384;28;20545;-70
2022/03/20 04:34:26;;;;;;;17.15;8.27;;;1.10;66.00;;;;;;4974428;28;20023;-72
2022/03/20 04:36:53;;;;;;;12.50;5.18;;;1.00;66.00;;;;;;4974286;28;20031;-71
2022/03/20 04:39:19;;;;;;;10.05;5.25;;;1.00;65.90;;;;;;4974495;28;20094;-73
2022/03/20 04:41:46;;;;;;;16.38;6.50;;;1.10;65.50;;;;;;4974307;28;20114;-71
2022/03/20 04:44:12;;;;;;;19.48;10.43;;;1.10;65.40;;;;;;4974491;28;20477;-70
2022/03/20 04:46:40;;;;;;;25.05;10.13;;;1.10;65.60;;;;;;4974268;28;20094;-68
2022/03/20 05:00:06;;;;;;;13.50;7.05;;;0.80;67.80;;;;;;4973646;28;20039;-71
2022/03/20 05:02:31;;;;;;;16.10;8.35;;;0.60;67.80;;;;;;4974187;28;20050;-72
2022/03/20 05:04:57;;;;;;;19.67;9.02;;;0.60;68.10;;;;;;4973717;28;20058;-71
2022/03/20 05:07:23;;;;;;;24.13;10.02;;;1.30;68.00;;;;;;4973803;28;20038;-69
2022/03/20 05:15:18;;;;;;;20.90;9.73;;;2.20;65.70;;;;;;4973426;28;20054;-68
2022/03/20 05:17:43;;;;;;;20.52;12.18;;;2.40;64.90;;;;;;4973214;28;20105;-70
2022/03/20 05:20:10;;;;;;;19.67;9.75;;;2.70;64.50;;;;;;4973439;28;20088;-71
2022/03/20 05:22:38;;;;;;;13.05;8.27;;;3.40;63.90;;;;;;4973079;28;20055;-71
2022/03/20 05:25:09;;;;;;;14.50;8.15;;;3.80;63.10;;;;;;4973388;28;20544;-72
2022/03/20 05:27:35;;;;;;;19.35;10.18;;;3.80;62.10;;;;;;4973323;28;20046;-72
2022/03/20 05:30:03;;;;;;;16.95;10.50;;;3.40;62.00;;;;;;4972944;28;20038;-72
2022/03/20 05:32:28;;;;;;;16.95;9.45;;;3.30;61.90;;;;;;4973605;28;20043;-72
2022/03/20 05:34:54;;;;;;;13.55;7.50;;;3.30;62.30;;;;;;4973335;28;20227;-70
2022/03/20 05:37:20;;;;;;;10.98;6.65;;;3.70;61.60;;;;;;4955098;28;20405;-72
2022/03/20 05:39:46;;;;;;;12.73;7.20;;;3.30;61.80;;;;;;4973282;28;20030;-72
2022/03/20 05:42:14;;;;;;;22.40;12.32;;;3.40;61.80;;;;;;4973056;28;20027;-71
2022/03/20 05:44:41;;;;;;;17.95;10.27;;;4.50;62.00;;;;;;4972851;28;20077;-70
2022/03/20 05:47:07;;;;;;;16.35;9.60;;;4.60;61.10;;;;;;4973010;28;20049;-68
2022/03/20 05:49:35;;;;;;;19.70;12.00;;;4.70;60.90;;;;;;4973410;28;20011;-71
2022/03/20 05:52:00;;;;;;;29.25;18.02;;;4.50;60.10;;;;;;4972856;28;20035;-71
2022/03/20 05:54:26;;;;;;;15.52;8.95;;;5.00;60.10;;;;;;4973194;28;20425;-67
2022/03/20 05:59:37;;;;;;;15.63;7.38;;;5.00;59.10;;;;;;4973154;28;20434;-70
2022/03/20 06:02:03;;;;;;;11.40;5.93;;;3.20;60.80;;;;;;4972918;28;20086;-69
2022/03/20 06:04:31;;;;;;;16.70;6.72;;;2.90;62.30;;;;;;4972288;28;20038;-66
2022/03/20 06:06:58;;;;;;;14.85;6.95;;;2.60;63.20;;;;;;4972639;28;20493;-71
2022/03/20 06:09:24;;;;;;;16.63;6.68;;;2.50;64.00;;;;;;4972524;28;20029;-67
2022/03/20 06:11:50;;;;;;;13.45;5.75;;;2.50;64.40;;;;;;4972686;28;20508;-70
2022/03/20 06:14:17;;;;;;;11.80;4.72;;;2.40;63.70;;;;;;4972708;28;20023;-70
2022/03/20 06:16:45;;;;;;;14.77;6.63;;;2.60;64.30;;;;;;4972651;28;20023;-70
2022/03/20 06:19:11;;;;;;;15.25;7.10;;;2.60;63.70;;;;;;4955712;28;20114;-65
2022/03/20 06:21:38;;;;;;;20.73;9.38;;;2.80;63.90;;;;;;4972437;28;20106;-69
2022/03/20 06:24:04;;;;;;;9.68;4.80;;;2.80;63.20;;;;;;4972669;28;20035;-71
2022/03/20 06:26:30;;;;;;;17.77;7.78;;;3.00;63.00;;;;;;4972626;28;20092;-71
2022/03/20 06:28:55;;;;;;;28.42;12.57;;;3.00;63.50;;;;;;4972704;28;20481;-70
2022/03/20 06:31:22;;;;;;;17.30;8.25;;;2.90;63.40;;;;;;4972623;28;20077;-70
2022/03/20 06:33:48;;;;;;;10.90;5.85;;;3.20;64.10;;;;;;4972666;28;20485;-68
2022/03/20 06:36:14;;;;;;;11.35;5.70;;;3.00;62.50;;;;;;4972179;28;20027;-71
2022/03/20 06:38:40;;;;;;;12.57;6.22;;;3.10;63.20;;;;;;4972413;28;20027;-71
2022/03/20 06:41:07;;;;;;;12.35;6.13;;;3.10;63.00;;;;;;4972537;28;20027;-69
2022/03/20 06:43:38;;;;;;;11.23;6.03;;;3.20;62.90;;;;;;4972595;28;20031;-72
2022/03/20 06:46:05;;;;;;;15.68;7.22;;;3.30;62.40;;;;;;4972524;28;20382;-72
2022/03/20 06:48:31;;;;;;;10.48;5.03;;;3.30;62.00;;;;;;4972513;28;20015;-69
2022/03/20 06:50:57;;;;;;;15.32;6.07;;;3.60;61.80;;;;;;4968232;28;20042;-69
2022/03/20 06:53:23;;;;;;;15.32;6.78;;;3.80;62.40;;;;;;4970445;28;20018;-67
2022/03/20 06:55:49;;;;;;;12.00;5.50;;;4.00;61.40;;;;;;4972853;28;20034;-71
2022/03/20 06:58:16;;;;;;;11.65;4.53;;;4.20;60.30;;;;;;4970882;28;20449;-66
2022/03/20 07:00:41;;;;;;;10.18;5.22;;;4.30;59.50;;;;;;4972220;28;20110;-68
2022/03/20 07:03:08;;;;;;;11.25;4.95;;;4.40;59.90;;;;;;4961209;28;20296;-69
2022/03/20 07:05:36;;;;;;;9.15;4.65;;;4.60;59.90;;;;;;4970788;28;20034;-69
2022/03/20 07:08:03;;;;;;;14.63;6.97;;;4.60;60.40;;;;;;4971943;28;20035;-67
2022/03/20 07:10:30;;;;;;;10.52;4.45;;;4.60;59.40;;;;;;4972040;28;20359;-69
2022/03/20 07:15:42;;;;;;;8.73;4.55;;;5.00;58.80;;;;;;4973089;28;20027;-70
2022/03/20 07:18:12;;;;;;;6.90;3.70;;;4.70;57.70;;;;;;4975636;28;20026;-70
2022/03/20 07:20:39;;;;;;;10.23;4.20;;;5.00;58.30;;;;;;4975420;28;20509;-68
2022/03/20 07:23:09;;;;;;;9.90;4.88;;;5.30;58.50;;;;;;4975258;28;20043;-68
2022/03/20 07:31:06;;;;;;;12.98;5.07;;;5.30;58.50;;;;;;4974896;28;20470;-68
2022/03/20 07:33:35;;;;;;;9.25;4.68;;;5.60;57.70;;;;;;4961144;28;20031;-71
2022/03/20 07:36:02;;;;;;;9.35;5.07;;;5.30;55.70;;;;;;4956375;29;20038;-71
2022/03/20 07:38:28;;;;;;;9.25;5.25;;;5.60;55.80;;;;;;4956197;29;20067;-69
2022/03/20 07:40:54;;;;;;;10.68;4.35;;;5.90;56.00;;;;;;4938009;29;20074;-70
2022/03/20 07:43:20;;;;;;;10.40;6.05;;;6.00;55.30;;;;;;4967895;28;20502;-72
2022/03/20 07:45:46;;;;;;;13.65;5.22;;;6.00;55.90;;;;;;4974355;28;20039;-73
2022/03/20 07:48:13;;;;;;;12.52;5.45;;;5.90;54.90;;;;;;4974540;28;20153;-70
2022/03/20 07:50:40;;;;;;;16.77;6.22;;;5.90;54.20;;;;;;4974704;28;20114;-69
2022/03/20 07:53:06;;;;;;;13.25;5.57;;;6.10;56.20;;;;;;4974351;28;20018;-70
2022/03/20 07:55:34;;;;;;;10.57;5.32;;;6.20;55.00;;;;;;4974330;28;20023;-70
2022/03/20 07:58:01;;;;;;;15.82;7.57;;;6.40;56.30;;;;;;4974260;28;20073;-70
2022/03/20 08:00:27;;;;;;;13.52;5.40;;;6.50;55.60;;;;;;4971287;28;20027;-70
2022/03/20 08:02:53;;;;;;;19.65;9.65;;;6.50;54.60;;;;;;4966028;28;20032;-70
2022/03/20 08:05:20;;;;;;;21.83;11.60;;;6.50;54.30;;;;;;4968330;28;20081;-71
2022/03/20 08:07:46;;;;;;;22.70;11.55;;;6.70;55.60;;;;;;4974358;28;20097;-73
2022/03/20 08:10:18;;;;;;;23.98;8.18;;;6.70;54.40;;;;;;4973784;28;20034;-71
2022/03/20 08:12:47;;;;;;;16.55;6.30;;;6.70;53.70;;;;;;4971345;28;20037;-71
2022/03/20 08:15:16;;;;;;;15.63;6.05;;;6.60;53.20;;;;;;4970602;28;20019;-72
2022/03/20 08:17:44;;;;;;;15.05;8.00;;;6.80;54.00;;;;;;4972846;28;20026;-72
2022/03/20 08:20:11;;;;;;;18.55;7.90;;;7.10;54.80;;;;;;4973367;28;20413;-73
2022/03/20 08:22:37;;;;;;;14.40;5.88;;;7.30;54.40;;;;;;4960765;28;20047;-73
2022/03/20 08:25:04;;;;;;;14.85;6.03;;;7.20;53.30;;;;;;4954429;28;20024;-73
2022/03/20 08:27:30;;;;;;;13.88;5.53;;;7.20;53.70;;;;;;4953272;28;20031;-74
2022/03/20 08:29:57;;;;;;;7.97;4.30;;;7.40;53.70;;;;;;4954238;28;20466;-74
2022/03/20 08:32:24;;;;;;;10.73;5.07;;;6.90;51.90;;;;;;4955968;28;20054;-69
2022/03/20 08:34:50;;;;;;;11.82;5.47;;;7.10;53.50;;;;;;4957586;28;20107;-71
2022/03/20 08:37:16;;;;;;;15.70;6.07;;;7.10;53.10;;;;;;4973937;28;20524;-70
2022/03/20 08:39:42;;;;;;;15.43;7.68;;;7.10;51.80;;;;;;4973397;28;20350;-68
2022/03/20 08:42:08;;;;;;;18.80;9.10;;;7.30;53.00;;;;;;4973361;28;20027;-69
2022/03/20 08:44:34;;;;;;;18.48;6.57;;;7.50;52.00;;;;;;4967780;28;20086;-70
2022/03/20 08:47:01;;;;;;;15.45;5.25;;;7.50;51.90;;;;;;4969681;28;20086;-69
2022/03/20 08:49:27;;;;;;;12.20;4.93;;;7.60;52.20;;;;;;4973261;28;20033;-70
2022/03/20 08:51:52;;;;;;;9.30;4.82;;;7.50;52.30;;;;;;4972669;28;20054;-71
2022/03/20 08:54:18;;;;;;;10.82;6.50;;;7.50;52.30;;;;;;4972423;28;20052;-70
2022/03/20 08:56:44;;;;;;;15.57;6.95;;;7.50;51.40;;;;;;4972146;28;20023;-70
2022/03/20 08:59:10;;;;;;;12.60;5.35;;;7.70;52.40;;;;;;4971804;28;20026;-69
2022/03/20 09:01:36;;;;;;;13.60;6.57;;;7.90;51.70;;;;;;4969950;28;20027;-71
2022/03/20 09:04:02;;;;;;;14.68;6.38;;;8.10;51.60;;;;;;4972101;28;20015;-70
2022/03/20 09:06:28;;;;;;;14.80;7.32;;;8.20;52.90;;;;;;4972209;28;20042;-69
2022/03/20 09:08:54;;;;;;;13.75;6.10;;;8.40;51.30;;;;;;4972059;28;20085;-68
2022/03/20 09:11:21;;;;;;;22.40;8.23;;;8.50;52.40;;;;;;4971722;28;20109;-70
2022/03/20 09:13:47;;;;;;;14.77;5.43;;;8.50;51.90;;;;;;4972042;28;20069;-70
2022/03/20 09:19:07;;;;;;;25.30;12.10;;;8.60;51.20;;;;;;4971908;28;20019;-72
2022/03/20 09:21:38;;;;;;;20.00;10.50;;;8.10;49.80;;;;;;4953898;28;20051;-71
2022/03/20 09:24:06;;;;;;;21.83;9.43;;;7.80;50.20;;;;;;4954116;29;20123;-71
2022/03/20 09:26:32;;;;;;;15.57;8.05;;;8.10;50.90;;;;;;4953733;29;20238;-73
2022/03/20 09:29:01;;;;;;;27.30;11.40;;;8.10;52.00;;;;;;4953905;29;20563;-72
2022/03/20 09:31:27;;;;;;;19.85;9.50;;;8.50;53.20;;;;;;4953669;28;20114;-72
2022/03/20 09:33:53;;;;;;;12.93;6.53;;;8.50;52.70;;;;;;4968991;28;20031;-71
2022/03/20 09:36:19;;;;;;;13.18;5.20;;;8.60;51.40;;;;;;4956552;28;20027;-73
2022/03/20 09:38:45;;;;;;;11.45;4.85;;;8.20;50.50;;;;;;4953662;28;20114;-69
2022/03/20 09:41:11;;;;;;;27.80;14.88;;;8.20;51.30;;;;;;4952115;28;20039;-70
2022/03/20 09:43:44;;;;;;;11.30;5.15;;;8.20;51.70;;;;;;4953528;28;20038;-70
2022/03/20 09:46:10;;;;;;;12.27;5.45;;;8.10;50.60;;;;;;4952946;28;20482;-70
2022/03/20 09:48:36;;;;;;;18.13;8.98;;;8.10;50.70;;;;;;4954578;28;20038;-69
2022/03/20 09:51:05;;;;;;;14.80;6.03;;;8.30;51.40;;;;;;4971583;28;20720;-71
2022/03/20 09:53:31;;;;;;;20.10;9.63;;;8.20;50.70;;;;;;4971990;28;20026;-67
2022/03/20 09:55:58;;;;;;;13.90;6.68;;;8.40;51.70;;;;;;4971734;28;20027;-71
2022/03/20 09:58:28;;;;;;;9.38;4.75;;;8.40;51.50;;;;;;4960787;28;20015;-70
2022/03/20 10:00:55;;;;;;;10.75;5.00;;;8.30;51.20;;;;;;4950123;28;20625;-70
2022/03/20 10:03:25;;;;;;;11.73;5.50;;;8.40;51.10;;;;;;4951399;28;20382;-71
2022/03/20 10:06:18;;;;;;;30.17;9.02;;;8.40;51.10;;;;;;4951250;28;20031;-70
2022/03/20 10:09:04;;;;;;;11.18;5.22;;;8.50;51.40;;;;;;4951340;28;20046;-71
2022/03/20 10:11:31;;;;;;;8.93;4.70;;;8.40;51.40;;;;;;4951959;28;20027;-69
2022/03/20 10:14:15;;;;;;;19.48;9.25;;;8.20;49.30;;;;;;4952832;28;20023;-70
2022/03/20 10:16:49;;;;;;;11.93;5.05;;;8.60;51.40;;;;;;4958791;28;20058;-70
2022/03/20 10:19:25;;;;;;;25.65;11.57;;;8.70;48.80;;;;;;4952772;28;20110;-72
2022/03/20 10:21:52;;;;;;;23.23;12.15;;;8.90;49.60;;;;;;4953290;29;20055;-70
2022/03/20 10:24:21;;;;;;;20.80;8.02;;;8.90;50.40;;;;;;4953365;29;20031;-71
2022/03/20 10:27:01;;;;;;;10.20;5.13;;;9.00;50.00;;;;;;4949484;28;20035;-70
2022/03/20 10:29:30;;;;;;;11.23;5.30;;;8.80;49.70;;;;;;4970615;28;20421;-70
2022/03/20 10:32:09;;;;;;;13.88;5.00;;;8.70;50.00;;;;;;4968374;28;20038;-71
2022/03/20 10:34:56;;;;;;;13.32;6.28;;;8.60;49.40;;;;;;4971220;28;20038;-71
2022/03/20 10:37:49;;;;;;;11.02;5.38;;;8.60;50.60;;;;;;4972562;28;20105;-70
2022/03/20 10:40:22;;;;;;;10.43;4.70;;;8.60;49.60;;;;;;4972046;28;20695;-71
2022/03/20 10:43:17;;;;;;;14.23;7.72;;;8.70;51.50;;;;;;4955046;28;20285;-69
2022/03/20 10:46:01;;;;;;;10.65;4.80;;;8.90;50.80;;;;;;4972503;28;20035;-71
2022/03/20 10:48:34;;;;;;;;;;;8.70;51.80;;;;;;4972570;28;20059;-71
2022/03/20 10:51:01;;;;;;;12.27;4.95;;;8.60;50.40;;;;;;4973064;28;20194;-70
2022/03/20 10:53:28;;;;;;;23.58;6.82;;;8.70;50.30;;;;;;4975415;28;20019;-69
2022/03/20 10:56:08;;;;;;;10.55;5.45;;;8.40;50.00;;;;;;4975538;28;20682;-73
2022/03/20 10:58:42;;;;;;;17.02;9.23;;;8.80;50.40;;;;;;4974080;28;20042;-70
2022/03/20 11:01:09;;;;;;;21.30;7.65;;;9.10;51.70;;;;;;4973734;28;20042;-67
2022/03/20 11:03:39;;;;;;;11.98;5.10;;;9.20;52.60;;;;;;4974449;28;20478;-68
2022/03/20 11:06:18;;;;;;;14.38;6.85;;;9.20;49.80;;;;;;4973889;28;20039;-71
2022/03/20 11:08:48;;;;;;;13.35;6.30;;;9.40;49.60;;;;;;4974370;28;20037;-71
2022/03/20 11:11:19;;;;;;;16.45;5.53;;;9.60;52.10;;;;;;4975253;28;20078;-70
2022/03/20 11:13:48;;;;;;;9.32;3.72;;;9.50;49.30;;;;;;4974173;28;20037;-73
2022/03/20 11:16:15;;;;;;;13.55;6.15;;;9.50;48.60;;;;;;4975260;28;20114;-69
2022/03/20 11:18:43;;;;;;;12.68;6.70;;;9.50;48.80;;;;;;4975542;28;20023;-69
2022/03/20 11:21:15;;;;;;;10.93;4.65;;;9.70;50.30;;;;;;4975507;28;20522;-69
2022/03/20 11:23:44;;;;;;;9.57;3.47;;;9.60;48.30;;;;;;4975423;28;20030;-70
2022/03/20 11:26:12;;;;;;;12.30;6.18;;;9.30;47.20;;;;;;4975636;28;20382;-70
2022/03/20 11:28:50;;;;;;;11.35;6.13;;;9.60;49.20;;;;;;4974219;28;20035;-70
2022/03/20 11:31:19;;;;;;;12.07;5.13;;;9.70;48.10;;;;;;4974139;28;20485;-70
2022/03/20 11:33:49;;;;;;;14.02;6.07;;;9.80;50.70;;;;;;4973423;28;20023;-71
2022/03/20 11:36:16;;;;;;;16.35;6.65;;;10.00;50.60;;;;;;4962675;28;20030;-70
2022/03/20 11:38:42;;;;;;;12.13;5.65;;;9.80;48.20;;;;;;4992646;28;20019;-70
2022/03/20 11:41:20;;;;;;;12.00;6.80;;;9.70;46.80;;;;;;4974969;28;20185;-70
2022/03/20 11:44:20;;;;;;;10.02;4.53;;;9.50;46.60;;;;;;4975069;28;20027;-70
2022/03/20 11:46:47;;;;;;;13.13;4.03;;;9.60;47.10;;;;;;4955457;29;20070;-69
2022/03/20 11:49:13;;;;;;;14.35;5.90;;;9.40;46.40;;;;;;4955899;29;20071;-69
2022/03/20 11:51:51;;;;;;;8.75;4.93;;;9.60;49.10;;;;;;4955666;29;20063;-72
2022/03/20 11:54:18;;;;;;;12.07;5.03;;;9.60;45.90;;;;;;4955463;29;20031;-70
2022/03/20 11:56:45;;;;;;;11.15;5.10;;;9.60;46.60;;;;;;4938734;29;20027;-70
2022/03/20 11:59:46;;;;;;;11.90;5.95;;;9.60;46.80;;;;;;4955147;29;20031;-71
2022/03/20 12:02:16;;;;;;;26.35;14.45;;;9.50;47.70;;;;;;4937758;28;20034;-70
2022/03/20 12:05:22;;;;;;;13.75;5.97;;;9.80;48.30;;;;;;4938394;29;20031;-70
2022/03/20 12:07:55;;;;;;;15.68;7.10;;;9.80;46.20;;;;;;4948383;29;20050;-67
2022/03/20 12:11:06;;;;;;;13.85;6.55;;;9.90;47.40;;;;;;4938009;29;20151;-72
2022/03/20 12:13:58;;;;;;;12.75;7.25;;;9.80;46.50;;;;;;4963400;28;20042;-70
2022/03/20 12:16:42;;;;;;;19.08;6.53;;;10.00;48.60;;;;;;4974780;28;20485;-71
2022/03/20 12:19:18;;;;;;;10.38;5.68;;;10.00;48.80;;;;;;4957386;28;20042;-73
2022/03/20 12:22:05;;;;;;;16.75;8.48;;;10.00;47.40;;;;;;4956420;28;20051;-71
2022/03/20 12:24:51;;;;;;;;;;;10.20;46.80;;;;;;4973636;28;20480;-72
2022/03/20 12:27:23;;;;;;;8.05;3.67;;;10.10;45.50;;;;;;4973347;28;19918;-70
2022/03/20 12:29:52;;;;;;;9.05;5.03;;;9.70;45.40;;;;;;4974348;28;20473;-72
2022/03/20 12:32:19;;;;;;;8.20;3.85;;;9.90;46.40;;;;;;4974356;28;20056;-73
2022/03/20 12:35:08;;;;;;;12.73;5.13;;;10.10;46.10;;;;;;4956916;28;20540;-74
2022/03/20 12:37:37;;;;;;;8.02;4.05;;;10.00;45.30;;;;;;4956996;28;20038;-73
2022/03/20 12:40:08;;;;;;;8.55;4.28;;;9.60;45.00;;;;;;4974216;28;20023;-73
2022/03/20 12:43:08;;;;;;;9.65;4.35;;;9.70;45.50;;;;;;4974191;28;20033;-74
2022/03/20 12:45:35;;;;;;;8.73;3.90;;;10.00;48.20;;;;;;4957171;28;20033;-73
2022/03/20 12:48:04;;;;;;;12.65;6.55;;;10.00;45.50;;;;;;4974376;28;20023;-73
2022/03/20 12:50:37;;;;;;;12.48;5.25;;;10.00;46.60;;;;;;4973654;28;20030;-72
2022/03/20 12:53:06;;;;;;;11.32;4.90;;;10.20;46.80;;;;;;4972927;28;20060;-73
2022/03/20 12:55:34;;;;;;;12.68;5.90;;;10.20;45.60;;;;;;4974372;28;20489;-73
2022/03/20 12:58:00;;;;;;;12.05;5.82;;;10.10;45.30;;;;;;4973921;28;20034;-72
2022/03/20 13:00:30;;;;;;;12.65;5.13;;;10.10;46.70;;;;;;4973931;28;20085;-73
2022/03/20 13:02:59;;;;;;;10.80;4.15;;;9.90;46.60;;;;;;4973260;28;20031;-73
2022/03/20 13:05:30;;;;;;;16.17;5.93;;;10.10;45.50;;;;;;4973690;28;20022;-74
2022/03/20 13:07:57;;;;;;;12.43;5.90;;;10.30;47.00;;;;;;4973674;28;20826;-71
2022/03/20 13:10:24;;;;;;;9.63;4.40;;;10.00;46.30;;;;;;4973795;28;20031;-73
2022/03/20 13:13:03;;;;;;;10.18;5.00;;;9.90;45.70;;;;;;4973630;28;20030;-74
2022/03/20 13:15:34;;;;;;;8.85;4.57;;;9.80;45.10;;;;;;4968218;28;20050;-69
2022/03/20 13:18:03;;;;;;;11.55;5.78;;;9.80;45.70;;;;;;4968922;28;20042;-75
2022/03/20 13:20:32;;;;;;;9.45;4.57;;;10.00;47.90;;;;;;4955706;28;20034;-74
2022/03/20 13:23:05;;;;;;;12.38;5.18;;;10.30;48.50;;;;;;4959880;28;20062;-75
2022/03/20 13:25:41;;;;;;;11.77;3.70;;;10.40;47.30;;;;;;4956308;28;20027;-76
2022/03/20 13:28:31;;;;;;;12.50;5.78;;;10.10;45.20;;;;;;4951336;28;20030;-76
2022/03/20 13:31:17;;;;;;;11.13;5.53;;;10.20;46.40;;;;;;4940145;28;20047;-74
2022/03/20 13:33:59;;;;;;;;;;;10.20;45.80;;;;;;4973562;28;20043;-73
2022/03/20 13:36:36;;;;;;;10.32;5.57;;;10.10;46.20;;;;;;4970895;28;19973;-73
2022/03/20 13:39:11;;;;;;;14.10;5.50;;;10.00;46.50;;;;;;4973396;28;20027;-74